Time;durP1;ratioP1;P1;durP2;ratioP2;P2;SDS_P1;SDS_P2;PMS_P1;PMS_P2;Temp;Humidity;BMP_temperature;BMP_pressure;BME280_temperature;BME280_humidity;BME280_pressure;Samples;Min_cycle;Max_cycle;Signal;HPM_P1;HPM_P2
2021/12/05 00:21:34;;;;;;;24.97;5.63;;;4.20;99.90;;;;;;5031759;28;20271;-72
2021/12/05 00:24:04;;;;;;;23.73;6.10;;;4.20;99.90;;;;;;5031133;28;20221;-71
2021/12/05 00:26:35;;;;;;;25.20;6.07;;;4.10;99.90;;;;;;5032127;28;20706;-71
2021/12/05 00:29:11;;;;;;;26.03;5.67;;;4.10;99.90;;;;;;5031660;28;20326;-71
2021/12/05 00:34:58;;;;;;;27.87;7.37;;;4.00;99.90;;;;;;5028690;28;20221;-71
2021/12/05 00:43:49;;;;;;;31.63;6.20;;;4.40;99.90;;;;;;5023563;28;20286;-71
2021/12/05 00:46:40;;;;;;;28.77;6.47;;;4.50;99.90;;;;;;5025430;28;20611;-71
2021/12/05 00:49:29;;;;;;;24.90;6.13;;;4.60;99.90;;;;;;5030196;28;20279;-71
2021/12/05 00:52:18;;;;;;;29.73;6.10;;;4.70;99.90;;;;;;5028242;28;20340;-71
2021/12/05 00:55:10;;;;;;;27.90;6.10;;;4.80;99.90;;;;;;5030039;28;20228;-71
2021/12/05 01:00:46;;;;;;;25.10;6.30;;;4.80;99.90;;;;;;5027351;28;20878;-71
2021/12/05 01:09:14;;;;;;;25.00;5.60;;;4.80;99.90;;;;;;5012179;28;20276;-71
2021/12/05 01:14:29;;;;;;;26.73;5.73;;;4.80;99.90;;;;;;4991157;28;20249;-72
2021/12/05 01:16:58;;;;;;;24.93;5.70;;;4.90;99.90;;;;;;5030898;28;20229;-72
2021/12/05 01:19:28;;;;;;;28.07;6.27;;;4.90;99.90;;;;;;5011824;28;20276;-72
2021/12/05 01:21:58;;;;;;;25.60;5.60;;;4.90;99.90;;;;;;5011724;28;20371;-72
2021/12/05 01:24:36;;;;;;;28.90;5.77;;;4.90;99.90;;;;;;5014935;28;20214;-71
2021/12/05 01:27:11;;;;;;;26.20;5.33;;;5.00;99.90;;;;;;5016176;28;20309;-71
2021/12/05 01:29:46;;;;;;;20.80;4.90;;;5.00;99.90;;;;;;5011994;28;20214;-72
2021/12/05 01:32:24;;;;;;;21.97;4.70;;;5.00;99.90;;;;;;5005814;28;20440;-70
2021/12/05 01:35:05;;;;;;;25.83;5.03;;;5.00;99.90;;;;;;5007471;28;20259;-70
2021/12/05 01:37:42;;;;;;;25.40;6.47;;;5.20;99.90;;;;;;5013387;28;20228;-71
2021/12/05 01:40:38;;;;;;;26.97;5.83;;;5.20;99.90;;;;;;5008700;28;20699;-72
2021/12/05 02:33:44;;;;;;;18.80;4.60;;;4.80;99.90;;;;;;4932175;29;20316;-71
2021/12/05 02:36:33;;;;;;;27.43;5.70;;;4.80;99.90;;;;;;4933724;29;21114;-70
2021/12/05 02:39:24;;;;;;;30.53;6.67;;;4.70;99.90;;;;;;4988640;28;20536;-70
2021/12/05 02:41:55;;;;;;;25.50;5.73;;;4.70;99.90;;;;;;5007724;28;20695;-70
2021/12/05 02:44:25;;;;;;;29.63;6.30;;;4.60;99.90;;;;;;5027842;28;20225;-70
2021/12/05 02:47:07;;;;;;;24.37;5.60;;;4.60;99.90;;;;;;5013503;28;20715;-70
2021/12/05 02:49:37;;;;;;;25.30;5.33;;;4.60;99.90;;;;;;5011803;28;20995;-70
2021/12/05 02:52:08;;;;;;;29.53;5.70;;;4.70;99.90;;;;;;5014630;28;20226;-71
2021/12/05 02:54:40;;;;;;;24.67;4.67;;;4.70;99.90;;;;;;5006505;28;20707;-71
2021/12/05 02:57:10;;;;;;;23.30;5.43;;;4.70;99.90;;;;;;5011118;28;20319;-71
2021/12/05 02:59:49;;;;;;;48.37;9.07;;;4.80;99.90;;;;;;5013318;28;20264;-71
2021/12/05 03:02:19;;;;;;;17.30;4.10;;;4.80;99.90;;;;;;5009066;28;20210;-71
2021/12/05 03:04:52;;;;;;;26.87;5.10;;;4.80;99.90;;;;;;5013511;28;20210;-72
2021/12/05 03:07:25;;;;;;;28.50;5.83;;;4.80;99.90;;;;;;5013989;28;20218;-71
2021/12/05 03:09:55;;;;;;;19.70;4.40;;;4.80;99.90;;;;;;5013421;28;20218;-71
2021/12/05 03:12:23;;;;;;;15.77;4.20;;;4.80;99.90;;;;;;5011216;28;20303;-71
2021/12/05 03:15:00;;;;;;;15.97;3.97;;;4.80;99.90;;;;;;5014337;28;20599;-71
2021/12/05 03:17:27;;;;;;;21.83;4.60;;;4.90;99.90;;;;;;5014466;28;20224;-70
2021/12/05 03:19:54;;;;;;;27.20;4.80;;;3.30;99.90;;;;;;5014206;28;20217;-70
2021/12/05 03:22:21;;;;;;;24.40;5.23;;;5.00;99.90;;;;;;5016281;28;20206;-71
2021/12/05 03:24:49;;;;;;;21.87;5.00;;;5.00;99.90;;;;;;5016680;28;20295;-71
2021/12/05 03:27:18;;;;;;;22.97;4.70;;;5.00;99.90;;;;;;5028018;28;20234;-71
2021/12/05 03:29:47;;;;;;;24.37;4.87;;;5.00;99.90;;;;;;5014330;28;20214;-70
2021/12/05 03:32:14;;;;;;;29.00;5.77;;;5.00;99.90;;;;;;5020640;28;21046;-71
2021/12/05 03:34:42;;;;;;;24.63;5.77;;;5.00;99.90;;;;;;5011268;28;21308;-72
2021/12/05 03:37:10;;;;;;;22.53;5.10;;;5.00;99.90;;;;;;5029762;28;20303;-71
2021/12/05 03:39:37;;;;;;;19.83;5.00;;;5.00;99.90;;;;;;5028977;28;20795;-71
2021/12/05 03:42:07;;;;;;;23.90;4.60;;;5.00;99.90;;;;;;5012314;28;20221;-71
2021/12/05 03:44:37;;;;;;;29.77;5.83;;;4.90;99.90;;;;;;5015011;28;20202;-71
2021/12/05 03:47:07;;;;;;;27.50;5.63;;;4.90;99.90;;;;;;5013169;28;20210;-70
2021/12/05 03:49:38;;;;;;;21.77;4.83;;;4.90;99.90;;;;;;5012956;28;20237;-71
2021/12/05 03:52:10;;;;;;;28.53;4.80;;;4.80;99.90;;;;;;5006785;28;20324;-71
2021/12/05 03:54:37;;;;;;;17.30;4.67;;;4.80;99.90;;;;;;5014315;28;21047;-70
2021/12/05 03:57:06;;;;;;;24.17;5.20;;;4.70;99.90;;;;;;5010682;28;20249;-70
2021/12/05 03:59:36;;;;;;;21.07;5.43;;;4.70;99.90;;;;;;5007159;28;20671;-70
2021/12/05 04:02:06;;;;;;;18.50;4.53;;;4.60;99.90;;;;;;5013226;28;20237;-71
2021/12/05 04:04:36;;;;;;;31.23;5.87;;;4.60;99.90;;;;;;5028874;28;20210;-71
2021/12/05 04:07:04;;;;;;;24.37;5.37;;;4.50;99.90;;;;;;5015745;28;20672;-71
2021/12/05 04:09:33;;;;;;;21.13;4.57;;;4.50;99.90;;;;;;5014113;28;20718;-71
2021/12/05 04:12:02;;;;;;;23.70;5.27;;;4.40;99.90;;;;;;5030988;28;20218;-71
2021/12/05 04:14:42;;;;;;;25.03;5.10;;;4.40;99.90;;;;;;5010047;28;20209;-71
2021/12/05 04:17:12;;;;;;;19.47;4.60;;;4.30;99.90;;;;;;5007790;28;20303;-71
2021/12/05 04:19:39;;;;;;;24.23;5.43;;;4.30;99.90;;;;;;5013074;28;20772;-71
2021/12/05 04:22:07;;;;;;;29.07;6.07;;;4.20;99.90;;;;;;5016345;28;21633;-71
2021/12/05 04:24:36;;;;;;;25.80;6.20;;;4.20;99.90;;;;;;5013696;28;20679;-71
2021/12/05 04:27:04;;;;;;;15.90;3.87;;;4.20;99.90;;;;;;5010309;28;20582;-71
2021/12/05 04:29:32;;;;;;;22.43;5.43;;;4.20;99.90;;;;;;5006712;28;20363;-70
2021/12/05 04:32:00;;;;;;;24.23;5.30;;;4.10;99.90;;;;;;5007063;28;20294;-71
2021/12/05 04:34:28;;;;;;;24.57;5.10;;;4.10;99.90;;;;;;5015734;28;20328;-70
2021/12/05 04:36:56;;;;;;;22.63;5.03;;;4.20;99.90;;;;;;5023450;28;20214;-71
2021/12/05 04:39:25;;;;;;;28.63;5.43;;;4.30;99.90;;;;;;5016050;28;20238;-70
2021/12/05 04:41:54;;;;;;;19.80;4.70;;;4.30;99.90;;;;;;5014766;28;20782;-70
2021/12/05 04:44:22;;;;;;;15.10;3.90;;;4.40;99.90;;;;;;5034031;28;20721;-71
2021/12/05 04:46:51;;;;;;;19.30;5.37;;;4.50;99.90;;;;;;5014741;28;20221;-72
2021/12/05 04:49:20;;;;;;;21.73;5.10;;;4.50;99.90;;;;;;5015138;28;20238;-71
2021/12/05 04:51:49;;;;;;;21.13;5.17;;;4.50;99.90;;;;;;5010309;28;20300;-71
2021/12/05 04:54:18;;;;;;;22.47;4.80;;;4.50;99.90;;;;;;5016488;28;20390;-71
2021/12/05 04:56:48;;;;;;;18.63;4.43;;;4.60;99.90;;;;;;5013446;28;20224;-72
2021/12/05 04:59:18;;;;;;;23.23;5.07;;;4.60;99.90;;;;;;5011484;28;20270;-72
2021/12/05 05:01:49;;;;;;;23.40;5.30;;;4.60;99.90;;;;;;5010582;28;20356;-71
2021/12/05 05:04:23;;;;;;;22.70;4.90;;;4.70;99.90;;;;;;5017485;28;20205;-72
2021/12/05 05:06:53;;;;;;;22.10;5.17;;;4.70;99.90;;;;;;5018661;28;20210;-72
2021/12/05 05:09:20;;;;;;;23.47;5.17;;;4.70;99.90;;;;;;5016765;28;20242;-72
2021/12/05 05:11:47;;;;;;;21.47;4.63;;;4.70;99.90;;;;;;5018783;28;20218;-71
2021/12/05 05:14:14;;;;;;;22.77;5.40;;;4.80;99.90;;;;;;5017091;28;20226;-71
2021/12/05 05:16:42;;;;;;;22.43;5.33;;;4.80;99.90;;;;;;5015991;28;20214;-71
2021/12/05 05:19:10;;;;;;;23.13;5.00;;;4.80;99.90;;;;;;5018238;28;20237;-71
2021/12/05 05:21:43;;;;;;;19.23;4.80;;;4.80;99.90;;;;;;5017911;28;20261;-71
2021/12/05 05:24:35;;;;;;;23.20;5.33;;;4.80;99.90;;;;;;5016930;28;20210;-71
2021/12/05 05:27:28;;;;;;;19.10;4.57;;;4.80;99.90;;;;;;5016531;28;20303;-71
2021/12/05 05:30:27;;;;;;;21.33;5.27;;;4.80;99.90;;;;;;5018177;28;20238;-72
2021/12/05 05:44:25;;;;;;;23.50;5.40;;;4.90;99.90;;;;;;5017508;28;20210;-71
2021/12/05 05:46:57;;;;;;;22.83;5.10;;;5.00;99.90;;;;;;5017310;28;20339;-71
2021/12/05 05:49:33;;;;;;;18.67;4.30;;;5.00;99.90;;;;;;5031275;28;20239;-72
2021/12/05 05:52:01;;;;;;;21.40;5.03;;;5.00;99.90;;;;;;5016975;28;20221;-71
2021/12/05 05:54:28;;;;;;;23.43;5.33;;;5.00;99.90;;;;;;5014196;28;20241;-72
2021/12/05 05:57:01;;;;;;;23.43;5.33;;;5.00;99.90;;;;;;5015994;28;20209;-71
2021/12/05 05:59:40;;;;;;;21.53;5.27;;;5.00;99.90;;;;;;5016206;28;20431;-72
2021/12/05 06:04:51;;;;;;;23.30;5.23;;;5.00;99.90;;;;;;5015137;28;20840;-72
2021/12/05 06:07:18;;;;;;;20.53;4.93;;;7.20;99.90;;;;;;5017031;28;20210;-71
2021/12/05 06:09:45;;;;;;;20.40;4.67;;;5.00;99.90;;;;;;5017160;28;20210;-71
2021/12/05 06:12:14;;;;;;;17.10;4.50;;;5.10;99.90;;;;;;5014753;28;20218;-72
2021/12/05 06:14:40;;;;;;;20.40;4.90;;;5.00;99.90;;;;;;5016545;28;20257;-72
2021/12/05 06:17:07;;;;;;;19.83;5.33;;;5.10;99.90;;;;;;5015848;28;20234;-71
2021/12/05 06:19:35;;;;;;;23.53;5.03;;;5.00;99.90;;;;;;5015716;28;20229;-71
2021/12/05 06:22:05;;;;;;;22.27;4.40;;;5.10;99.90;;;;;;5009634;28;20253;-70
2021/12/05 06:24:32;;;;;;;21.17;4.90;;;5.20;99.90;;;;;;5017182;28;20642;-71
2021/12/05 06:27:01;;;;;;;22.47;4.27;;;5.20;99.90;;;;;;5018121;28;20297;-69
2021/12/05 06:29:35;;;;;;;27.10;6.10;;;5.30;99.90;;;;;;5010944;28;20304;-70
2021/12/05 06:32:22;;;;;;;21.27;5.00;;;5.30;99.90;;;;;;5014390;28;20218;-70
2021/12/05 06:37:47;;;;;;;27.47;5.47;;;5.40;99.90;;;;;;5016114;28;20230;-70
2021/12/05 06:43:03;;;;;;;17.40;4.47;;;5.50;99.90;;;;;;5003705;28;20210;-71
2021/12/05 06:48:15;;;;;;;18.33;4.30;;;5.50;99.90;;;;;;5015847;28;20230;-70
2021/12/05 06:50:42;;;;;;;23.93;4.93;;;5.60;99.90;;;;;;5015126;28;20680;-72
2021/12/05 06:53:09;;;;;;;17.50;4.70;;;5.60;99.90;;;;;;5014221;28;20235;-71
2021/12/05 06:55:36;;;;;;;23.03;5.30;;;5.60;99.90;;;;;;5017281;28;20202;-71
2021/12/05 06:58:03;;;;;;;21.53;4.60;;;5.60;99.90;;;;;;5014735;28;20252;-71
2021/12/05 07:00:31;;;;;;;24.87;5.10;;;5.60;99.90;;;;;;5014627;28;20288;-70
2021/12/05 07:02:59;;;;;;;22.57;5.07;;;5.60;99.90;;;;;;5016981;28;20636;-72
2021/12/05 07:05:42;;;;;;;20.30;4.70;;;5.60;99.90;;;;;;5016063;28;20722;-71
2021/12/05 07:08:13;;;;;;;22.07;4.83;;;5.60;99.90;;;;;;5014731;28;20237;-71
2021/12/05 07:10:47;;;;;;;21.07;4.27;;;5.60;99.90;;;;;;5018137;28;20198;-71
2021/12/05 07:13:50;;;;;;;22.10;4.90;;;5.50;99.90;;;;;;5016578;28;20320;-70
2021/12/05 07:16:24;;;;;;;18.10;4.20;;;5.60;99.90;;;;;;5016713;28;20220;-71
2021/12/05 07:19:07;;;;;;;23.47;5.33;;;5.60;99.90;;;;;;5013379;28;20669;-71
2021/12/05 07:21:42;;;;;;;22.90;5.47;;;5.50;99.90;;;;;;5015551;28;20218;-71
2021/12/05 07:24:17;;;;;;;23.23;5.20;;;5.60;99.90;;;;;;5016103;28;20213;-71
2021/12/05 07:27:11;;;;;;;20.07;4.57;;;5.60;99.90;;;;;;5016577;28;20209;-71
2021/12/05 07:40:41;;;;;;;25.93;5.17;;;5.60;99.90;;;;;;5013033;28;20226;-72
2021/12/05 07:43:11;;;;;;;26.53;5.57;;;5.70;99.90;;;;;;5012726;28;20213;-72
2021/12/05 07:45:44;;;;;;;25.60;5.83;;;5.70;99.90;;;;;;5011515;28;20213;-72
2021/12/05 07:48:20;;;;;;;20.27;4.57;;;5.70;99.90;;;;;;5014421;28;20882;-72
2021/12/05 07:50:56;;;;;;;16.23;4.40;;;5.80;99.90;;;;;;5016547;28;20688;-71
2021/12/05 07:53:28;;;;;;;15.23;3.97;;;5.80;99.90;;;;;;5030711;28;20315;-73
2021/12/05 07:55:56;;;;;;;16.97;4.33;;;5.80;99.90;;;;;;5017683;28;20671;-73
2021/12/05 07:58:46;;;;;;;15.23;3.87;;;5.80;99.90;;;;;;5018184;28;20240;-72
2021/12/05 08:14:20;;;;;;;21.13;5.63;;;5.80;99.90;;;;;;5014454;28;20652;-72
2021/12/05 08:15:16;;;;;;;26.80;5.63;;;6.00;99.90;;;;;;5024122;28;20317;-71
2021/12/05 08:17:50;;;;;;;16.50;4.43;;;6.00;99.90;;;;;;5022081;28;20230;-72
2021/12/05 08:20:22;;;;;;;27.40;6.53;;;6.10;99.90;;;;;;5011895;28;20227;-71
2021/12/05 08:22:49;;;;;;;21.80;5.63;;;6.10;99.90;;;;;;5012726;28;20217;-70
2021/12/05 08:25:20;;;;;;;17.40;4.73;;;6.10;99.90;;;;;;5009926;28;20876;-71
2021/12/05 08:27:50;;;;;;;20.10;5.33;;;6.10;99.90;;;;;;5024480;28;20569;-71
2021/12/05 08:30:25;;;;;;;17.40;4.90;;;6.20;99.90;;;;;;5008271;28;20324;-71
2021/12/05 08:36:00;;;;;;;27.17;6.43;;;6.30;99.90;;;;;;4998624;28;20300;-71
2021/12/05 09:25:58;;;;;;;20.43;5.37;;;6.30;99.90;;;;;;5006884;28;20222;-71
2021/12/05 09:38:30;;;;;;;23.03;5.13;;;6.30;99.90;;;;;;5012335;28;20211;-71
2021/12/05 09:51:16;;;;;;;16.43;4.57;;;6.40;99.90;;;;;;5017751;28;20209;-71
2021/12/05 10:02:36;;;;;;;19.23;5.10;;;6.40;99.90;;;;;;4994537;28;21080;-72
2021/12/05 10:08:11;;;;;;;20.73;5.20;;;6.40;99.90;;;;;;5022636;28;20677;-71
2021/12/05 10:10:48;;;;;;;19.40;4.70;;;6.40;99.90;;;;;;5023541;28;20783;-74
2021/12/05 10:13:23;;;;;;;23.80;6.20;;;6.50;99.90;;;;;;5026400;28;20229;-74
2021/12/05 10:16:09;;;;;;;21.13;5.10;;;6.60;99.90;;;;;;5023841;28;20209;-71
2021/12/05 10:19:05;;;;;;;20.07;5.47;;;6.70;99.90;;;;;;5020969;28;20617;-71
2021/12/05 10:27:26;;;;;;;18.67;4.80;;;6.60;99.90;;;;;;5014402;28;20214;-71
2021/12/05 10:38:21;;;;;;;17.73;4.80;;;6.40;99.90;;;;;;5018662;28;20247;-73
2021/12/05 10:40:59;;;;;;;16.93;4.40;;;6.40;99.90;;;;;;5030998;28;20256;-72
2021/12/05 10:43:29;;;;;;;18.70;5.00;;;6.40;99.90;;;;;;5023232;28;20287;-72
2021/12/05 10:46:03;;;;;;;18.87;5.17;;;6.50;99.90;;;;;;5017130;28;20210;-73
2021/12/05 10:48:34;;;;;;;18.63;5.27;;;6.50;99.90;;;;;;5024305;28;20544;-73
2021/12/05 10:51:03;;;;;;;19.67;5.10;;;6.60;99.90;;;;;;5023874;28;20233;-73
2021/12/05 10:53:41;;;;;;;18.27;5.00;;;6.80;99.90;;;;;;5018743;28;20684;-73
2021/12/05 10:56:13;;;;;;;17.60;4.80;;;7.00;99.90;;;;;;5015865;28;20205;-72
2021/12/05 10:58:44;;;;;;;16.73;4.80;;;7.10;99.90;;;;;;5016929;28;20967;-72
2021/12/05 11:01:28;;;;;;;20.23;5.43;;;7.20;99.90;;;;;;5021034;28;20222;-72
2021/12/05 11:04:00;;;;;;;18.53;4.43;;;7.20;99.90;;;;;;5027375;28;20201;-73
2021/12/05 11:06:33;;;;;;;19.13;5.73;;;7.20;99.90;;;;;;5018481;28;20217;-74
2021/12/05 11:09:05;;;;;;;17.33;4.83;;;7.30;99.90;;;;;;5022052;28;20746;-74
2021/12/05 11:11:35;;;;;;;20.37;5.37;;;7.40;99.90;;;;;;5023964;28;20209;-71
2021/12/05 11:14:03;;;;;;;20.93;5.87;;;7.40;99.90;;;;;;5021594;28;20606;-72
2021/12/05 11:17:00;;;;;;;18.17;5.13;;;7.60;99.90;;;;;;5026483;28;20660;-76
2021/12/05 11:19:33;;;;;;;20.73;5.53;;;7.70;99.90;;;;;;5017429;28;20250;-78
2021/12/05 11:22:05;;;;;;;20.27;5.67;;;7.80;99.90;;;;;;5013669;28;20221;-75
2021/12/05 11:24:35;;;;;;;24.37;6.80;;;7.80;99.90;;;;;;5014841;28;20252;-75
2021/12/05 11:27:16;;;;;;;28.57;6.23;;;7.90;99.90;;;;;;5007332;28;20210;-74
2021/12/05 11:29:47;;;;;;;24.33;6.33;;;7.90;99.90;;;;;;5016736;28;20291;-74
2021/12/05 11:32:17;;;;;;;16.53;4.93;;;7.90;99.90;;;;;;5011385;28;20215;-74
2021/12/05 11:34:46;;;;;;;17.63;4.50;;;8.00;99.90;;;;;;5019220;28;20238;-74
2021/12/05 11:37:14;;;;;;;17.73;5.50;;;8.00;99.90;;;;;;5014763;28;20218;-74
2021/12/05 11:39:41;;;;;;;15.90;4.43;;;8.00;99.90;;;;;;5023477;28;20231;-74
2021/12/05 11:42:19;;;;;;;16.47;4.37;;;8.00;99.90;;;;;;5024920;28;20262;-74
2021/12/05 11:44:52;;;;;;;17.63;4.50;;;7.90;99.90;;;;;;5022128;28;20221;-74
2021/12/05 11:47:23;;;;;;;19.23;4.77;;;8.10;99.90;;;;;;5022967;28;20216;-75
2021/12/05 11:49:51;;;;;;;20.23;5.10;;;8.10;99.90;;;;;;5023306;28;20222;-74
2021/12/05 11:52:23;;;;;;;17.00;4.20;;;8.20;99.90;;;;;;5019782;28;20219;-75
2021/12/05 11:54:51;;;;;;;22.80;5.30;;;8.30;99.90;;;;;;5024295;28;20265;-74
2021/12/05 11:57:21;;;;;;;20.67;4.97;;;8.50;99.90;;;;;;5023815;28;20707;-74
2021/12/05 11:59:52;;;;;;;21.70;4.50;;;8.50;99.90;;;;;;5022460;28;20314;-74
2021/12/05 12:02:24;;;;;;;25.83;6.73;;;8.50;99.90;;;;;;5019684;28;22011;-72
2021/12/05 12:04:56;;;;;;;14.67;4.10;;;8.50;99.90;;;;;;5014760;28;20238;-73
2021/12/05 12:07:32;;;;;;;21.80;5.07;;;8.50;99.90;;;;;;5014799;28;20221;-73
2021/12/05 12:10:02;;;;;;;29.03;6.20;;;8.50;99.90;;;;;;5017386;28;20593;-74
2021/12/05 12:12:29;;;;;;;18.77;4.90;;;8.50;99.90;;;;;;5012209;28;20227;-73
2021/12/05 12:14:57;;;;;;;26.23;6.17;;;8.50;99.90;;;;;;5021539;28;20318;-74
2021/12/05 12:17:25;;;;;;;22.10;5.10;;;8.40;99.90;;;;;;5013960;28;20222;-74
2021/12/05 12:19:55;;;;;;;21.93;5.13;;;8.50;99.90;;;;;;5012796;28;20228;-74
2021/12/05 12:22:26;;;;;;;23.43;5.80;;;8.50;99.90;;;;;;5029499;28;20310;-74
2021/12/05 12:24:56;;;;;;;20.40;4.83;;;8.40;99.90;;;;;;5012212;28;20277;-74
2021/12/05 12:27:24;;;;;;;16.07;4.10;;;8.50;99.90;;;;;;5016547;28;20315;-74
2021/12/05 12:29:53;;;;;;;17.03;4.53;;;8.50;99.90;;;;;;5029320;28;20200;-73
2021/12/05 12:32:25;;;;;;;21.17;5.10;;;8.50;99.90;;;;;;5020972;28;20269;-74
2021/12/05 12:35:06;;;;;;;22.47;4.93;;;8.50;99.90;;;;;;5008143;28;20330;-74
2021/12/05 12:37:52;;;;;;;22.10;5.27;;;8.50;99.90;;;;;;5016698;28;20211;-74
2021/12/05 12:40:36;;;;;;;23.23;5.43;;;8.50;99.90;;;;;;5021865;28;20215;-73
2021/12/05 12:43:03;;;;;;;21.10;5.03;;;8.50;99.90;;;;;;5015374;28;20203;-74
2021/12/05 12:45:37;;;;;;;22.87;5.53;;;8.50;99.90;;;;;;5028256;28;20720;-74
2021/12/05 12:48:11;;;;;;;20.77;5.37;;;8.60;99.90;;;;;;5028224;28;20318;-74
2021/12/05 12:50:51;;;;;;;20.93;5.10;;;8.60;99.90;;;;;;5023750;28;20211;-74
2021/12/05 12:53:22;;;;;;;14.13;3.90;;;8.70;99.90;;;;;;5020758;28;20215;-74
2021/12/05 12:55:56;;;;;;;18.87;4.77;;;8.70;99.90;;;;;;5014254;28;20234;-74
2021/12/05 12:58:36;;;;;;;21.03;5.30;;;8.60;99.90;;;;;;5011474;28;20757;-73
2021/12/05 13:01:17;;;;;;;18.37;4.77;;;8.60;99.90;;;;;;5019350;28;20256;-74
2021/12/05 13:04:29;;;;;;;21.83;5.43;;;8.50;99.90;;;;;;5019169;28;20231;-74
2021/12/05 13:09:59;;;;;;;20.63;4.93;;;8.50;99.90;;;;;;5016665;28;20223;-73
2021/12/05 13:10:24;;;;;;;19.97;5.07;;;8.50;99.90;;;;;;5023349;28;20238;-74
2021/12/05 13:12:54;;;;;;;17.80;4.50;;;8.40;99.90;;;;;;5027540;28;20204;-74
2021/12/05 13:15:31;;;;;;;19.53;4.90;;;8.40;99.90;;;;;;5025248;28;20226;-74
2021/12/05 13:18:00;;;;;;;20.97;4.90;;;8.30;99.90;;;;;;5022681;28;20239;-74
2021/12/05 13:20:30;;;;;;;14.43;3.70;;;8.30;99.90;;;;;;5028275;28;20209;-74
2021/12/05 13:23:08;;;;;;;16.83;4.60;;;8.20;99.90;;;;;;5024529;28;20238;-74
2021/12/05 13:25:56;;;;;;;23.23;5.40;;;8.10;99.90;;;;;;5020806;28;20211;-74
2021/12/05 13:28:34;;;;;;;17.57;4.33;;;8.10;99.90;;;;;;5015690;28;20727;-74
2021/12/05 13:31:22;;;;;;;21.10;5.03;;;8.10;99.90;;;;;;5018119;28;20213;-75
2021/12/05 13:33:50;;;;;;;23.83;5.93;;;8.00;99.90;;;;;;5017074;28;20675;-74
2021/12/05 13:36:30;;;;;;;23.10;5.57;;;8.10;99.90;;;;;;5014688;28;20334;-75
2021/12/05 13:38:57;;;;;;;19.20;4.63;;;8.10;99.90;;;;;;5015938;28;20261;-74
2021/12/05 13:41:24;;;;;;;22.63;5.63;;;8.10;99.90;;;;;;5017322;28;20235;-75
2021/12/05 13:43:56;;;;;;;20.90;5.23;;;8.10;99.90;;;;;;5013983;28;20213;-74
2021/12/05 13:46:35;;;;;;;23.30;5.90;;;8.20;99.90;;;;;;5012087;28;20653;-75
2021/12/05 13:49:35;;;;;;;21.93;5.67;;;8.20;99.90;;;;;;5016206;28;20718;-75
2021/12/05 13:52:32;;;;;;;23.57;5.87;;;8.20;99.90;;;;;;5017386;28;20231;-74
2021/12/05 13:55:31;;;;;;;19.80;4.77;;;8.20;99.90;;;;;;5015773;28;20218;-74
2021/12/05 13:58:40;;;;;;;20.03;4.93;;;8.10;99.90;;;;;;5018231;28;20723;-74
2021/12/05 14:01:11;;;;;;;22.40;5.33;;;9.10;99.90;;;;;;4962424;28;20671;-72
2021/12/05 14:03:54;;;;;;;25.03;6.10;;;8.10;99.90;;;;;;4954379;28;20213;-73
2021/12/05 14:06:40;;;;;;;25.53;5.60;;;8.00;99.90;;;;;;4999791;28;20222;-73
2021/12/05 14:09:17;;;;;;;21.23;5.03;;;8.10;99.90;;;;;;5017805;28;20348;-73
2021/12/05 14:11:51;;;;;;;25.83;5.90;;;8.00;99.90;;;;;;5017951;28;21131;-72
2021/12/05 14:14:22;;;;;;;23.53;4.40;;;8.00;99.90;;;;;;5014694;28;20232;-75
2021/12/05 14:16:51;;;;;;;20.37;5.13;;;8.00;99.90;;;;;;5022365;28;20231;-75
2021/12/05 14:19:20;;;;;;;19.97;4.97;;;8.00;99.90;;;;;;5029715;28;20226;-75
2021/12/05 14:21:50;;;;;;;25.80;6.17;;;7.90;99.90;;;;;;5027595;28;20239;-75
2021/12/05 14:24:20;;;;;;;16.10;4.33;;;7.90;99.90;;;;;;5033792;28;20220;-75
2021/12/05 14:26:50;;;;;;;18.67;4.50;;;7.90;99.90;;;;;;5040441;28;20205;-75
2021/12/05 14:29:19;;;;;;;19.60;4.57;;;7.90;99.90;;;;;;5040318;28;20284;-74
2021/12/05 14:31:49;;;;;;;23.53;5.87;;;7.90;99.90;;;;;;5024869;28;20218;-74
2021/12/05 14:34:17;;;;;;;21.10;5.03;;;7.80;99.90;;;;;;5026333;28;20317;-73
2021/12/05 14:36:47;;;;;;;20.23;5.07;;;7.80;99.90;;;;;;5026549;28;20302;-75
2021/12/05 14:39:21;;;;;;;19.43;4.80;;;7.70;99.90;;;;;;5032480;28;20266;-73
2021/12/05 14:41:52;;;;;;;20.07;4.43;;;7.80;99.90;;;;;;5026345;28;20311;-74
2021/12/05 14:44:21;;;;;;;16.07;4.00;;;8.80;99.90;;;;;;5022826;28;20335;-74
2021/12/05 14:46:54;;;;;;;19.63;5.00;;;7.80;99.90;;;;;;5025594;28;20211;-74
2021/12/05 14:49:23;;;;;;;22.20;5.27;;;6.40;99.90;;;;;;5024482;28;20226;-73
2021/12/05 14:51:50;;;;;;;17.73;3.97;;;7.80;99.90;;;;;;5021942;28;20220;-74
2021/12/05 14:54:28;;;;;;;17.73;4.57;;;7.80;99.90;;;;;;5026279;28;20201;-74
2021/12/05 14:56:56;;;;;;;16.07;4.30;;;7.80;99.90;;;;;;5027781;28;20591;-73
2021/12/05 14:59:24;;;;;;;21.93;5.73;;;7.80;99.90;;;;;;5020972;28;20255;-73
2021/12/05 15:01:54;;;;;;;14.67;3.90;;;7.80;99.90;;;;;;5026491;28;20677;-73
2021/12/05 15:04:25;;;;;;;15.93;4.27;;;7.80;99.90;;;;;;5021591;28;20214;-73
2021/12/05 15:06:52;;;;;;;21.20;5.33;;;7.80;99.90;;;;;;5023393;28;20589;-73
2021/12/05 15:09:25;;;;;;;24.00;5.67;;;7.80;99.90;;;;;;5020425;28;20294;-73
2021/12/05 15:11:56;;;;;;;21.17;5.17;;;7.70;99.90;;;;;;5023011;28;20285;-73
2021/12/05 15:14:24;;;;;;;18.67;4.37;;;7.60;99.90;;;;;;5022952;28;20213;-74
2021/12/05 15:17:00;;;;;;;22.93;4.70;;;7.50;99.90;;;;;;5037061;28;20250;-73
2021/12/05 15:19:28;;;;;;;20.77;5.33;;;7.40;99.90;;;;;;5020395;28;20232;-74
2021/12/05 15:21:56;;;;;;;21.93;5.20;;;7.30;99.90;;;;;;5021280;28;20229;-73
2021/12/05 15:24:27;;;;;;;25.37;6.03;;;7.20;99.90;;;;;;5021515;28;20316;-73
2021/12/05 15:26:56;;;;;;;17.60;4.20;;;7.10;99.90;;;;;;5016247;28;20704;-73
2021/12/05 15:29:24;;;;;;;20.77;4.73;;;7.00;99.90;;;;;;5014360;28;20230;-73
2021/12/05 15:31:53;;;;;;;28.63;6.77;;;6.90;99.90;;;;;;5016032;28;20241;-74
2021/12/05 15:34:32;;;;;;;21.77;5.27;;;6.90;99.90;;;;;;5025991;28;20213;-75
2021/12/05 15:37:06;;;;;;;20.90;5.13;;;6.90;99.90;;;;;;5021170;28;20308;-75
2021/12/05 15:39:40;;;;;;;21.07;5.30;;;6.80;99.90;;;;;;5016273;28;20306;-75
2021/12/05 15:42:15;;;;;;;20.33;5.03;;;6.70;99.90;;;;;;5021200;28;20297;-75
2021/12/05 15:44:43;;;;;;;19.50;4.90;;;6.70;99.90;;;;;;5020924;28;20400;-75
2021/12/05 15:47:13;;;;;;;21.23;5.30;;;6.60;99.90;;;;;;5020388;28;20587;-75
2021/12/05 15:50:00;;;;;;;21.33;5.37;;;6.60;99.90;;;;;;5017679;28;22365;-73
2021/12/05 15:52:34;;;;;;;21.27;5.20;;;6.50;99.90;;;;;;5020187;28;20220;-75
2021/12/05 15:55:07;;;;;;;19.53;4.90;;;6.40;99.90;;;;;;5022739;28;20232;-75
2021/12/05 15:57:36;;;;;;;23.53;6.20;;;6.30;99.90;;;;;;5023289;28;20205;-75
2021/12/05 16:00:10;;;;;;;19.70;4.87;;;6.30;99.90;;;;;;5020497;28;20218;-75
2021/12/05 16:02:39;;;;;;;25.20;6.23;;;6.30;99.90;;;;;;5021029;28;20226;-74
2021/12/05 16:05:16;;;;;;;22.87;5.83;;;6.20;99.90;;;;;;5022965;28;20212;-74
2021/12/05 16:07:43;;;;;;;23.33;6.27;;;6.10;99.90;;;;;;5023858;28;20244;-75
2021/12/05 16:10:16;;;;;;;23.33;5.73;;;6.10;99.90;;;;;;5015544;28;20214;-75
2021/12/05 16:12:44;;;;;;;21.20;5.57;;;6.10;99.90;;;;;;5019934;28;20210;-74
2021/12/05 16:15:12;;;;;;;28.07;6.30;;;6.00;99.90;;;;;;5019563;28;20217;-74
2021/12/05 16:17:40;;;;;;;23.20;5.83;;;6.00;99.90;;;;;;5020980;28;20226;-74
2021/12/05 16:20:15;;;;;;;24.10;6.23;;;6.00;99.90;;;;;;5019057;28;20713;-74
2021/12/05 16:23:07;;;;;;;27.10;6.50;;;6.10;99.90;;;;;;5020031;28;20201;-75
2021/12/05 16:25:39;;;;;;;25.00;6.47;;;6.10;99.90;;;;;;5021254;28;20206;-74
2021/12/05 16:28:12;;;;;;;25.87;6.33;;;6.10;99.90;;;;;;5020220;28;20312;-74
2021/12/05 16:30:43;;;;;;;24.17;6.20;;;6.10;99.90;;;;;;5019503;28;20529;-74
2021/12/05 16:33:11;;;;;;;23.23;6.30;;;6.10;99.90;;;;;;5008196;28;20210;-74
2021/12/05 16:35:42;;;;;;;30.03;7.63;;;6.20;99.90;;;;;;5003234;28;20222;-74
2021/12/05 16:38:29;;;;;;;23.33;6.03;;;6.20;99.90;;;;;;5014324;28;20376;-73
2021/12/05 16:41:03;;;;;;;26.20;7.13;;;6.30;99.90;;;;;;5014286;28;20217;-72
2021/12/05 16:43:32;;;;;;;24.93;6.47;;;6.20;99.90;;;;;;5019751;28;20210;-73
2021/12/05 16:46:09;;;;;;;21.77;6.00;;;6.30;99.90;;;;;;5022493;28;20209;-76
2021/12/05 16:48:39;;;;;;;26.23;6.43;;;6.30;99.90;;;;;;5027197;28;20229;-73
2021/12/05 16:51:23;;;;;;;26.70;6.70;;;6.40;99.90;;;;;;5029137;28;20572;-73
2021/12/05 16:53:58;;;;;;;24.10;6.40;;;6.40;99.90;;;;;;5025074;28;20610;-75
2021/12/05 16:56:50;;;;;;;25.40;7.07;;;6.50;99.90;;;;;;5020824;28;20221;-75
2021/12/05 16:59:24;;;;;;;29.33;7.30;;;6.50;99.90;;;;;;5022590;28;20238;-75
2021/12/05 17:02:16;;;;;;;25.70;6.97;;;6.50;99.90;;;;;;5021515;28;20210;-73
2021/12/05 17:04:57;;;;;;;28.83;7.03;;;6.40;99.90;;;;;;5027079;28;20720;-73
2021/12/05 17:07:41;;;;;;;25.17;6.40;;;6.50;99.90;;;;;;5019459;28;20259;-73
2021/12/05 17:10:12;;;;;;;21.80;5.87;;;6.40;99.90;;;;;;5023624;28;20233;-74
2021/12/05 17:12:40;;;;;;;27.77;7.37;;;6.50;99.90;;;;;;5028902;28;20221;-75
2021/12/05 17:15:16;;;;;;;27.63;6.93;;;6.50;99.90;;;;;;5019191;28;20214;-72